createdAt,value
2023-04-17T00:00:12.804Z,29.40
2023-04-17T00:02:41.463Z,29.40
2023-04-17T00:05:10.305Z,29.50
2023-04-17T00:07:43.109Z,29.50
2023-04-17T00:10:11.171Z,29.50
2023-04-17T00:12:39.080Z,29.50
2023-04-17T00:15:07.813Z,29.60
2023-04-17T00:17:35.481Z,29.60
2023-04-17T00:20:06.786Z,29.70
2023-04-17T00:22:34.294Z,29.60
2023-04-17T00:25:01.861Z,29.70
2023-04-17T00:27:30.178Z,29.70
2023-04-17T00:29:57.753Z,29.70
2023-04-17T00:32:26.178Z,29.80
2023-04-17T00:34:55.688Z,29.80
2023-04-17T00:37:23.532Z,29.80
2023-04-17T00:39:51.905Z,29.90
2023-04-17T00:42:19.928Z,30.00
2023-04-17T00:44:48.355Z,30.00
2023-04-17T00:47:16.093Z,30.10
2023-04-17T00:49:44.675Z,30.10
2023-04-17T00:52:12.621Z,30.20
2023-04-17T00:54:41.714Z,30.20
2023-04-17T00:57:09.812Z,30.30
2023-04-17T00:59:38.542Z,30.40
2023-04-17T01:02:06.307Z,30.50
2023-04-17T01:04:34.087Z,30.50
2023-04-17T01:07:02.656Z,30.60
2023-04-17T01:09:33.595Z,30.60
2023-04-17T01:12:33.778Z,30.70
2023-04-17T01:15:02.064Z,30.70
2023-04-17T01:17:29.817Z,30.80
2023-04-17T01:19:58.655Z,30.80
2023-04-17T01:22:26.348Z,30.90
2023-04-17T01:24:53.993Z,30.90
2023-04-17T01:27:25.906Z,31.00
2023-04-17T01:30:16.363Z,31.00
2023-04-17T01:38:25.696Z,31.30
2023-04-17T01:40:53.719Z,31.40
2023-04-17T01:43:22.503Z,31.40
2023-04-17T01:49:33.350Z,31.50
2023-04-17T01:52:03.020Z,31.60
2023-04-17T01:54:31.168Z,31.70
2023-04-17T01:57:03.223Z,31.80
2023-04-17T01:59:31.707Z,31.80
2023-04-17T02:04:34.061Z,32.00
2023-04-17T02:07:03.983Z,32.00
2023-04-17T02:09:33.387Z,32.00
2023-04-17T02:12:02.303Z,32.00
2023-04-17T02:14:32.462Z,32.10
2023-04-17T02:17:01.532Z,32.10
2023-04-17T02:19:29.747Z,32.20
2023-04-17T02:21:57.547Z,32.20
2023-04-17T02:24:26.717Z,32.30
2023-04-17T02:26:55.121Z,32.40
2023-04-17T02:29:29.200Z,32.50
2023-04-17T02:32:01.403Z,32.60
2023-04-17T02:34:32.506Z,32.70
2023-04-17T02:37:03.003Z,32.80
2023-04-17T02:42:29.535Z,32.90
2023-04-17T02:44:57.891Z,32.90
2023-04-17T02:47:27.566Z,32.90
2023-04-17T02:49:58.255Z,32.90
2023-04-17T02:52:26.035Z,33.00
2023-04-17T02:54:54.599Z,33.00
2023-04-17T02:57:22.331Z,33.10
2023-04-17T03:03:22.497Z,33.20
2023-04-17T03:05:50.212Z,33.30
2023-04-17T03:08:17.864Z,33.30
2023-04-17T03:13:39.113Z,33.40
2023-04-17T03:16:07.960Z,33.50
2023-04-17T03:18:36.393Z,33.50
2023-04-17T03:21:07.170Z,33.60
2023-04-17T03:23:34.989Z,33.60
2023-04-17T03:26:11.495Z,33.70
2023-04-17T03:28:44.467Z,33.80
2023-04-17T03:31:24.199Z,33.80
2023-04-17T03:33:52.118Z,33.80
2023-04-17T03:36:19.704Z,33.90
2023-04-17T03:38:47.466Z,33.90
2023-04-17T03:41:15.925Z,33.90
2023-04-17T03:43:44.524Z,33.90
2023-04-17T03:46:15.680Z,33.90
2023-04-17T03:48:46.870Z,34.00
2023-04-17T03:51:27.793Z,34.00
2023-04-17T03:53:55.515Z,34.10
2023-04-17T03:56:23.226Z,34.10
2023-04-17T03:58:51.025Z,34.20
2023-04-17T04:01:18.726Z,34.30
2023-04-17T04:03:47.504Z,34.30
2023-04-17T04:06:15.223Z,34.40
2023-04-17T04:09:15.786Z,34.50
2023-04-17T04:14:57.224Z,34.60
2023-04-17T04:17:24.967Z,34.70
2023-04-17T04:19:53.162Z,34.70
2023-04-17T04:22:22.097Z,34.70
2023-04-17T04:24:49.784Z,34.80
2023-04-17T04:27:18.271Z,34.80
2023-04-17T04:29:49.112Z,34.90
2023-04-17T04:34:52.508Z,35.10
2023-04-17T04:37:22.622Z,35.20
2023-04-17T04:39:54.294Z,35.20
2023-04-17T04:44:58.441Z,35.30
2023-04-17T04:47:34.007Z,35.30
2023-04-17T04:50:06.235Z,35.30
2023-04-17T04:52:42.678Z,35.30
2023-04-17T04:55:18.239Z,35.30
2023-04-17T05:00:18.487Z,35.40
2023-04-17T05:02:46.384Z,35.40
2023-04-17T05:05:14.359Z,35.40
2023-04-17T05:07:46.328Z,35.50
2023-04-17T05:10:14.066Z,35.60
2023-04-17T05:12:42.232Z,35.60
2023-04-17T05:15:10.174Z,35.60
2023-04-17T05:17:48.220Z,35.70
2023-04-17T05:20:26.528Z,35.80
2023-04-17T05:22:54.299Z,35.80
2023-04-17T05:25:23.701Z,35.90
2023-04-17T05:27:51.507Z,35.90
2023-04-17T05:30:19.122Z,36.00
2023-04-17T05:32:48.803Z,36.00
2023-04-17T05:35:19.638Z,36.10
2023-04-17T05:38:19.857Z,36.10
2023-04-17T05:40:48.480Z,36.20
2023-04-17T05:43:19.209Z,36.20
2023-04-17T05:45:49.908Z,36.20
2023-04-17T05:48:17.646Z,36.20
2023-04-17T05:53:45.945Z,36.30
2023-04-17T05:56:17.473Z,36.40
2023-04-17T05:58:45.517Z,36.40
2023-04-17T06:01:17.439Z,36.50
2023-04-17T06:03:47.757Z,36.50
2023-04-17T06:06:22.322Z,36.50
2023-04-17T06:08:58.460Z,36.50
2023-04-17T06:11:32.757Z,36.60
2023-04-17T06:14:00.413Z,36.60
2023-04-17T06:16:28.334Z,36.60
2023-04-17T06:18:57.372Z,36.70
2023-04-17T06:21:25.739Z,36.70
2023-04-17T06:23:54.072Z,36.70
2023-04-17T06:26:22.430Z,36.80
2023-04-17T06:28:58.483Z,36.80
2023-04-17T06:31:33.689Z,36.80
2023-04-17T06:34:02.730Z,36.80
2023-04-17T06:36:34.066Z,36.80
2023-04-17T06:39:03.599Z,36.70
2023-04-17T06:41:35.986Z,36.80
2023-04-17T06:44:14.075Z,36.80
2023-04-17T06:46:42.151Z,36.80
2023-04-17T06:49:11.651Z,36.80
2023-04-17T06:51:39.806Z,36.70
2023-04-17T06:54:15.702Z,36.80
2023-04-17T06:56:46.282Z,36.80
2023-04-17T06:59:14.119Z,36.90
2023-04-17T07:01:42.646Z,36.90
2023-04-17T07:04:11.110Z,36.90
2023-04-17T07:06:40.602Z,37.00
2023-04-17T07:09:09.209Z,37.00
2023-04-17T07:11:36.866Z,37.00
2023-04-17T07:14:04.600Z,37.10
2023-04-17T07:16:33.153Z,37.10
2023-04-17T07:19:16.681Z,37.10
2023-04-17T07:21:45.060Z,37.10
2023-04-17T07:24:24.020Z,37.10
2023-04-17T07:29:38.424Z,37.10
2023-04-17T07:32:09.188Z,37.20
2023-04-17T07:34:41.460Z,37.20
2023-04-17T07:37:09.148Z,37.30
2023-04-17T07:39:36.852Z,37.30
2023-04-17T07:42:08.032Z,37.30
2023-04-17T07:44:36.997Z,37.40
2023-04-17T07:47:04.722Z,37.40
2023-04-17T07:49:32.727Z,37.40
2023-04-17T07:52:00.445Z,37.40
2023-04-17T07:54:28.108Z,37.40
2023-04-17T07:56:58.558Z,37.40
2023-04-17T07:59:26.204Z,37.40
2023-04-17T08:01:55.113Z,37.40
2023-04-17T08:04:22.948Z,37.40
2023-04-17T08:06:51.033Z,37.40
2023-04-17T08:09:18.647Z,37.30
2023-04-17T08:11:56.915Z,37.30
2023-04-17T08:14:26.336Z,37.30
2023-04-17T08:16:56.733Z,37.30
2023-04-17T08:19:25.243Z,37.40
2023-04-17T08:22:01.575Z,37.40
2023-04-17T08:24:32.086Z,37.50
2023-04-17T08:26:59.730Z,37.60
2023-04-17T08:29:27.796Z,37.60
2023-04-17T08:32:15.003Z,37.60
2023-04-17T08:34:48.448Z,37.70
2023-04-17T08:37:16.119Z,37.70
2023-04-17T08:39:44.778Z,37.70
2023-04-17T08:42:18.888Z,37.60
2023-04-17T08:44:46.942Z,37.60
2023-04-17T08:47:15.317Z,37.50
2023-04-17T08:49:45.986Z,37.50
2023-04-17T08:52:18.131Z,37.40
2023-04-17T08:54:48.983Z,37.40
2023-04-17T08:57:18.484Z,37.40
2023-04-17T08:59:47.306Z,37.40
2023-04-17T09:02:56.542Z,37.40
2023-04-17T09:05:31.585Z,37.40
2023-04-17T09:08:21.038Z,37.40
2023-04-17T09:10:50.378Z,37.40
2023-04-17T09:13:20.397Z,37.40
2023-04-17T09:16:04.125Z,37.30
2023-04-17T09:18:36.470Z,37.30
2023-04-17T09:21:05.166Z,37.30
2023-04-17T09:23:48.772Z,37.30
2023-04-17T09:26:18.688Z,37.30
2023-04-17T09:29:11.589Z,37.30
2023-04-17T09:31:41.297Z,37.30
2023-04-17T09:34:12.087Z,37.30
2023-04-17T09:36:42.554Z,37.30
2023-04-17T09:42:05.866Z,37.20
2023-04-17T09:44:37.222Z,37.20
2023-04-17T09:47:05.670Z,37.20
2023-04-17T09:49:49.767Z,37.20
2023-04-17T09:52:18.050Z,37.20
2023-04-17T09:54:54.223Z,37.10
2023-04-17T09:57:22.252Z,37.10
2023-04-17T09:59:50.336Z,37.00
2023-04-17T10:02:19.269Z,36.90
2023-04-17T10:04:55.320Z,36.80
2023-04-17T10:07:25.084Z,36.80
2023-04-17T10:09:52.770Z,36.70
2023-04-17T10:12:22.063Z,36.60
2023-04-17T10:14:51.477Z,36.60
2023-04-17T10:17:28.388Z,36.50
2023-04-17T10:19:56.140Z,36.40
2023-04-17T10:22:27.300Z,36.40
2023-04-17T10:25:13.561Z,36.30
2023-04-17T10:27:42.284Z,36.30
2023-04-17T10:30:12.341Z,36.20
2023-04-17T10:32:40.914Z,36.20
2023-04-17T10:35:08.782Z,36.20
2023-04-17T10:37:48.825Z,36.10
2023-04-17T10:40:32.028Z,36.10
2023-04-17T10:43:06.126Z,36.10
2023-04-17T10:45:53.044Z,36.10
2023-04-17T10:48:38.440Z,36.00
2023-04-17T10:51:25.166Z,36.00
2023-04-17T10:53:57.273Z,36.00
2023-04-17T10:56:41.744Z,36.00
2023-04-17T10:59:10.890Z,35.90
2023-04-17T11:01:39.848Z,35.90
2023-04-17T11:04:08.348Z,35.90
2023-04-17T11:06:40.570Z,35.90
2023-04-17T11:09:08.781Z,35.80
2023-04-17T11:11:45.051Z,35.80
2023-04-17T11:14:17.799Z,35.80
2023-04-17T11:16:46.483Z,35.70
2023-04-17T11:19:24.509Z,35.70
2023-04-17T11:21:53.900Z,35.70
2023-04-17T11:24:27.806Z,35.70
2023-04-17T11:26:56.403Z,35.60
2023-04-17T11:29:25.679Z,35.60
2023-04-17T11:31:55.045Z,35.50
2023-04-17T11:34:22.978Z,35.50
2023-04-17T11:37:08.288Z,35.50
2023-04-17T11:39:35.904Z,35.40
2023-04-17T11:42:04.044Z,35.40
2023-04-17T11:44:31.691Z,35.40
2023-04-17T11:46:59.535Z,35.40
2023-04-17T11:49:29.029Z,35.30
2023-04-17T11:51:57.811Z,35.30
2023-04-17T11:54:29.404Z,35.30
2023-04-17T11:57:00.072Z,35.30
2023-04-17T11:59:32.010Z,35.20
2023-04-17T12:02:01.252Z,35.20
2023-04-17T12:04:35.112Z,35.20
2023-04-17T12:07:03.555Z,35.20
2023-04-17T12:09:34.622Z,35.10
2023-04-17T12:12:04.647Z,35.10
2023-04-17T12:14:33.699Z,35.00
2023-04-17T12:17:01.503Z,35.00
2023-04-17T12:19:30.043Z,35.00
2023-04-17T12:21:59.451Z,34.90
2023-04-17T12:24:27.466Z,35.00
2023-04-17T12:26:55.162Z,34.90
2023-04-17T12:29:36.136Z,34.90
2023-04-17T12:32:11.110Z,34.80
2023-04-17T12:34:38.788Z,34.80
2023-04-17T12:37:06.607Z,34.80
2023-04-17T12:39:34.232Z,34.80
2023-04-17T12:42:01.913Z,34.70
2023-04-17T12:44:29.521Z,34.70
2023-04-17T12:46:57.997Z,34.70
2023-04-17T12:49:25.652Z,34.60
2023-04-17T12:51:53.306Z,34.60
2023-04-17T12:54:20.945Z,34.60
2023-04-17T12:56:51.075Z,34.50
2023-04-17T12:59:18.644Z,34.50
2023-04-17T13:01:46.699Z,34.50
2023-04-17T13:04:15.753Z,34.50
2023-04-17T13:06:43.795Z,34.40
2023-04-17T13:09:12.535Z,34.40
2023-04-17T13:11:40.230Z,34.40
2023-04-17T13:14:09.349Z,34.30
2023-04-17T13:16:36.940Z,34.30
2023-04-17T13:19:05.925Z,34.30
2023-04-17T13:21:33.483Z,34.20
2023-04-17T13:24:01.840Z,34.20
2023-04-17T13:26:29.461Z,34.20
2023-04-17T13:28:56.997Z,34.20
2023-04-17T13:31:27.127Z,34.20
2023-04-17T13:33:54.721Z,34.10
2023-04-17T13:36:22.273Z,34.10
2023-04-17T13:38:50.655Z,34.10
2023-04-17T13:41:18.217Z,34.00
2023-04-17T13:43:45.796Z,34.00
2023-04-17T13:46:16.941Z,34.00
2023-04-17T13:48:44.630Z,34.00
2023-04-17T13:51:12.497Z,34.00
2023-04-17T13:53:40.993Z,33.90
2023-04-17T13:56:08.598Z,33.90
2023-04-17T13:58:36.207Z,33.90
2023-04-17T14:01:04.045Z,33.90
2023-04-17T14:03:31.757Z,33.80
2023-04-17T14:05:59.471Z,33.80
2023-04-17T14:08:26.989Z,33.80
2023-04-17T14:10:54.573Z,33.70
2023-04-17T14:13:22.305Z,33.70
2023-04-17T14:15:52.633Z,33.70
2023-04-17T14:18:20.210Z,33.70
2023-04-17T14:20:48.876Z,33.60
2023-04-17T14:23:16.419Z,33.60
2023-04-17T14:25:45.018Z,33.60
2023-04-17T14:28:12.846Z,33.60
2023-04-17T14:30:40.496Z,33.50
2023-04-17T14:33:08.006Z,33.50
2023-04-17T14:35:35.708Z,33.50
2023-04-17T14:38:05.201Z,33.50
2023-04-17T14:40:33.192Z,33.40
2023-04-17T14:43:00.824Z,33.40
2023-04-17T14:45:28.533Z,33.40
2023-04-17T14:47:57.015Z,33.40
2023-04-17T14:50:24.598Z,33.40
2023-04-17T14:52:52.510Z,33.30
2023-04-17T14:55:20.037Z,33.30
2023-04-17T14:57:48.484Z,33.30
2023-04-17T15:00:16.547Z,33.20
2023-04-17T15:02:44.219Z,33.20
2023-04-17T15:05:11.884Z,33.20
2023-04-17T15:07:39.433Z,33.20
2023-04-17T15:10:07.520Z,33.20
2023-04-17T15:12:35.117Z,33.20
2023-04-17T15:15:02.775Z,33.10
2023-04-17T15:17:30.350Z,33.10
2023-04-17T15:20:00.469Z,33.10
2023-04-17T15:22:28.065Z,33.00
2023-04-17T15:24:55.675Z,33.00
2023-04-17T15:27:23.278Z,33.00
2023-04-17T15:29:50.965Z,33.00
2023-04-17T15:32:19.519Z,33.00
2023-04-17T15:34:47.683Z,32.90
2023-04-17T15:37:15.319Z,32.90
2023-04-17T15:39:42.986Z,32.90
2023-04-17T15:42:12.177Z,32.80
2023-04-17T15:44:41.092Z,32.80
2023-04-17T15:47:10.051Z,32.80
2023-04-17T15:49:38.420Z,32.80
2023-04-17T15:52:07.372Z,32.80
2023-04-17T15:54:34.921Z,32.70
2023-04-17T15:57:02.508Z,32.70
2023-04-17T15:59:32.266Z,32.70
2023-04-17T16:01:59.969Z,32.60
2023-04-17T16:04:27.786Z,32.60
2023-04-17T16:06:55.468Z,32.60
2023-04-17T16:09:24.699Z,32.60
2023-04-17T16:11:52.242Z,32.60
2023-04-17T16:14:19.870Z,32.60
2023-04-17T16:16:47.455Z,32.50
2023-04-17T16:19:15.151Z,32.50
2023-04-17T16:21:43.071Z,32.40
2023-04-17T16:24:10.994Z,32.40
2023-04-17T16:26:38.650Z,32.50
2023-04-17T16:29:06.179Z,32.40
2023-04-17T16:31:34.624Z,32.40
2023-04-17T16:34:03.204Z,32.40
2023-04-17T16:36:32.144Z,32.40
2023-04-17T16:41:47.515Z,32.30
2023-04-17T16:44:15.188Z,32.20
2023-04-17T16:47:02.924Z,32.30
2023-04-17T16:49:30.353Z,32.30
2023-04-17T16:54:42.789Z,32.20
2023-04-17T16:57:12.174Z,32.20
2023-04-17T16:59:40.498Z,32.20
2023-04-17T17:02:08.105Z,32.20
2023-04-17T17:04:36.648Z,32.20
2023-04-17T17:07:04.221Z,32.10
2023-04-17T17:09:31.781Z,32.10
2023-04-17T17:11:59.360Z,32.10
2023-04-17T17:14:26.952Z,32.10
2023-04-17T17:16:54.698Z,32.10
2023-04-17T17:19:22.365Z,32.00
2023-04-17T17:21:50.234Z,32.00
2023-04-17T17:27:00.988Z,32.00
2023-04-17T17:29:28.592Z,32.00
2023-04-17T17:31:57.016Z,31.90
2023-04-17T17:34:26.594Z,31.90
2023-04-17T17:39:36.895Z,31.90
2023-04-17T17:42:09.020Z,31.90
2023-04-17T17:44:36.766Z,31.90
2023-04-17T17:47:06.297Z,31.80
2023-04-17T17:49:35.154Z,31.80
2023-04-17T17:52:02.675Z,31.80
2023-04-17T17:54:30.230Z,31.80
2023-04-17T17:56:58.025Z,31.70
2023-04-17T17:59:25.553Z,31.70
2023-04-17T18:01:53.336Z,31.70
2023-04-17T18:04:21.363Z,31.70
2023-04-17T18:06:49.133Z,31.70
2023-04-17T18:09:34.338Z,31.60
2023-04-17T18:12:03.940Z,31.70
2023-04-17T18:14:32.747Z,31.60
2023-04-17T18:17:01.175Z,31.60
2023-04-17T18:19:28.713Z,31.60
2023-04-17T18:24:47.710Z,31.60
2023-04-17T18:27:15.312Z,31.60
2023-04-17T18:29:42.957Z,31.50
2023-04-17T18:32:10.614Z,31.50
2023-04-17T18:34:38.208Z,31.50
2023-04-17T18:37:06.833Z,31.40
2023-04-17T18:39:34.481Z,31.40
2023-04-17T18:42:02.783Z,31.40
2023-04-17T18:44:30.327Z,31.40
2023-04-17T18:46:57.940Z,31.40
2023-04-17T18:49:27.311Z,31.40
2023-04-17T18:51:54.884Z,31.40
2023-04-17T18:57:04.734Z,31.40
2023-04-17T18:59:32.277Z,31.30
2023-04-17T19:01:59.860Z,31.30
2023-04-17T19:04:30.543Z,31.30
2023-04-17T19:07:00.598Z,31.30
2023-04-17T19:09:28.168Z,31.20
2023-04-17T19:11:56.444Z,31.20
2023-04-17T19:14:24.915Z,31.20
2023-04-17T19:16:53.564Z,31.20
2023-04-17T19:19:21.996Z,31.10
2023-04-17T19:21:49.636Z,31.20
2023-04-17T19:24:17.165Z,31.10
2023-04-17T19:26:48.905Z,31.10
2023-04-17T19:29:17.486Z,31.10
2023-04-17T19:31:45.283Z,31.10
2023-04-17T19:34:12.939Z,31.10
2023-04-17T19:36:40.531Z,31.00
2023-04-17T19:39:08.178Z,31.00
2023-04-17T19:41:36.123Z,31.00
2023-04-17T19:44:03.889Z,31.00
2023-04-17T19:46:31.514Z,31.00
2023-04-17T19:48:59.380Z,31.00
2023-04-17T19:51:26.934Z,31.00
2023-04-17T19:53:54.557Z,30.90
2023-04-17T19:56:22.161Z,30.90
2023-04-17T19:58:53.956Z,30.90
2023-04-17T20:01:21.664Z,30.90
2023-04-17T20:03:49.452Z,30.90
2023-04-17T20:06:17.088Z,30.90
2023-04-17T20:08:44.752Z,30.90
2023-04-17T20:11:12.501Z,30.90
2023-04-17T20:13:40.559Z,30.80
2023-04-17T20:16:08.123Z,30.80
2023-04-17T20:18:37.579Z,30.90
2023-04-17T20:21:06.623Z,30.80
2023-04-17T20:23:34.252Z,30.80
2023-04-17T20:26:03.509Z,30.90
2023-04-17T20:28:31.254Z,30.80
2023-04-17T20:31:07.986Z,30.80
2023-04-17T20:33:35.833Z,30.80
2023-04-17T20:36:03.528Z,30.80
2023-04-17T20:38:31.879Z,30.80
2023-04-17T20:41:00.265Z,30.80
2023-04-17T20:43:27.824Z,30.80
2023-04-17T20:45:55.389Z,30.80
2023-04-17T20:48:23.031Z,30.80
2023-04-17T20:50:50.737Z,30.80
2023-04-17T20:53:18.535Z,30.70
2023-04-17T20:55:47.253Z,30.70
2023-04-17T20:58:14.838Z,30.70
2023-04-17T21:00:54.404Z,30.70
2023-04-17T21:03:30.381Z,30.70
2023-04-17T21:05:58.180Z,30.70
2023-04-17T21:08:25.812Z,30.70
2023-04-17T21:10:53.404Z,30.70
2023-04-17T21:13:21.202Z,30.70
2023-04-17T21:18:31.236Z,30.70
2023-04-17T21:20:58.824Z,30.70
2023-04-17T21:23:26.375Z,30.70
2023-04-17T21:25:55.116Z,30.70
2023-04-17T21:28:22.801Z,30.60
2023-04-17T21:30:50.691Z,30.60
2023-04-17T21:33:18.472Z,30.60
2023-04-17T21:35:46.037Z,30.60
2023-04-17T21:38:13.638Z,30.60
2023-04-17T21:40:50.582Z,30.60
2023-04-17T21:43:20.309Z,30.60
2023-04-17T21:45:48.005Z,30.60
2023-04-17T21:48:24.839Z,30.60
2023-04-17T21:50:53.026Z,30.60
2023-04-17T21:53:20.678Z,30.50
2023-04-17T21:55:48.249Z,30.50
2023-04-17T21:58:16.644Z,30.50
2023-04-17T22:00:44.293Z,30.50
2023-04-17T22:03:11.996Z,30.50
2023-04-17T22:05:40.540Z,30.50
2023-04-17T22:08:08.158Z,30.50
2023-04-17T22:10:36.822Z,30.40
2023-04-17T22:13:04.438Z,30.40
2023-04-17T22:15:32.087Z,30.40
2023-04-17T22:17:59.704Z,30.40
2023-04-17T22:20:36.904Z,30.40
2023-04-17T22:23:04.538Z,30.40
2023-04-17T22:25:33.670Z,30.30
2023-04-17T22:28:02.092Z,30.30
2023-04-17T22:30:29.704Z,30.30
2023-04-17T22:32:59.086Z,30.30
2023-04-17T22:35:27.200Z,30.30
2023-04-17T22:37:54.848Z,30.30
2023-04-17T22:43:07.993Z,30.20
2023-04-17T22:45:36.399Z,30.20
2023-04-17T22:48:04.124Z,30.20
2023-04-17T22:50:32.595Z,30.20
2023-04-17T22:53:00.999Z,30.20
2023-04-17T22:55:29.394Z,30.10
2023-04-17T22:57:56.940Z,30.10
2023-04-17T23:00:25.585Z,30.10
2023-04-17T23:02:53.287Z,30.10
2023-04-17T23:08:03.222Z,30.10
2023-04-17T23:10:30.882Z,30.10
2023-04-17T23:12:58.702Z,30.10
2023-04-17T23:15:26.591Z,30.10
2023-04-17T23:17:54.969Z,30.10
2023-04-17T23:20:25.831Z,30.10
2023-04-17T23:22:53.582Z,30.10
2023-04-17T23:25:21.377Z,30.10
2023-04-17T23:27:49.055Z,30.10
2023-04-17T23:30:16.817Z,30.10
2023-04-17T23:32:45.237Z,30.10
2023-04-17T23:35:12.832Z,30.00
2023-04-17T23:37:49.167Z,30.10
2023-04-17T23:40:17.645Z,30.10
2023-04-17T23:42:46.049Z,30.10
2023-04-17T23:45:13.679Z,30.10
2023-04-17T23:47:41.339Z,30.10
2023-04-17T23:50:12.715Z,30.10
2023-04-17T23:52:41.464Z,30.10
2023-04-17T23:55:09.260Z,30.20
2023-04-17T23:57:38.199Z,30.20
